Time;durP1;ratioP1;P1;durP2;ratioP2;P2;SDS_P1;SDS_P2;PMS_P1;PMS_P2;Temp;Humidity;BMP_temperature;BMP_pressure;BME280_temperature;BME280_humidity;BME280_pressure;Samples;Min_cycle;Max_cycle;Signal;HPM_P1;HPM_P2
2021/01/07 00:01:19;;;;;;;15.98;10.80;;;2.20;99.90;;;;;;5065911;28;20423;-75
2021/01/07 00:03:44;;;;;;;15.00;10.60;;;1.40;99.90;;;;;;5052934;28;20429;-76
2021/01/07 00:06:11;;;;;;;15.70;10.93;;;3.10;99.90;;;;;;5066883;28;20769;-74
2021/01/07 00:08:38;;;;;;;18.13;11.57;;;3.30;99.90;;;;;;5059373;28;20463;-74
2021/01/07 00:11:05;;;;;;;19.52;11.32;;;1.40;99.90;;;;;;5058528;28;20381;-75
2021/01/07 00:13:31;;;;;;;17.75;10.82;;;3.40;99.90;;;;;;5082516;28;20383;-76
2021/01/07 00:15:56;;;;;;;18.30;11.07;;;3.10;99.90;;;;;;5054014;28;20398;-76
2021/01/07 00:18:22;;;;;;;14.67;10.60;;;2.40;99.90;;;;;;5063669;28;20877;-76
2021/01/07 00:20:48;;;;;;;17.95;10.77;;;1.40;99.90;;;;;;5058926;28;20408;-76
2021/01/07 00:23:14;;;;;;;17.48;11.10;;;2.00;99.90;;;;;;5057786;28;20378;-76
2021/01/07 00:25:47;;;;;;;15.77;10.77;;;1.40;99.90;;;;;;5067093;28;20471;-78
2021/01/07 00:28:13;;;;;;;17.77;10.27;;;2.90;99.90;;;;;;5056045;28;20437;-76
2021/01/07 00:30:38;;;;;;;15.30;9.73;;;4.50;99.90;;;;;;5062635;28;20381;-76
2021/01/07 00:33:04;;;;;;;16.13;8.98;;;1.50;99.90;;;;;;5062686;28;20856;-76
2021/01/07 00:35:30;;;;;;;14.43;8.95;;;1.40;99.90;;;;;;5055451;28;20952;-76
2021/01/07 00:37:55;;;;;;;13.95;9.13;;;2.90;99.90;;;;;;5066890;28;20391;-77
2021/01/07 00:40:21;;;;;;;14.57;9.67;;;2.50;99.90;;;;;;5056955;28;20483;-74
2021/01/07 00:42:47;;;;;;;15.97;9.10;;;1.60;99.90;;;;;;5060417;28;20462;-75
2021/01/07 00:45:13;;;;;;;15.25;8.80;;;1.50;99.90;;;;;;5060187;28;20390;-74
2021/01/07 00:47:38;;;;;;;15.27;9.60;;;1.60;99.90;;;;;;5065774;28;20387;-75
2021/01/07 00:50:04;;;;;;;14.17;8.23;;;1.60;99.90;;;;;;5051420;28;20414;-75
2021/01/07 00:52:30;;;;;;;13.35;8.93;;;1.70;99.90;;;;;;5062463;28;20461;-75
2021/01/07 00:54:56;;;;;;;13.20;8.80;;;2.00;99.90;;;;;;5060367;28;20392;-75
2021/01/07 00:57:21;;;;;;;14.20;9.23;;;1.80;99.90;;;;;;5055973;28;20841;-74
2021/01/07 00:59:47;;;;;;;14.57;8.97;;;1.60;99.90;;;;;;5066679;28;20419;-75
2021/01/07 01:02:12;;;;;;;14.83;9.63;;;2.90;99.90;;;;;;5055650;28;20967;-75
2021/01/07 01:04:38;;;;;;;14.70;8.50;;;3.00;99.90;;;;;;5060987;28;20472;-75
2021/01/07 01:07:04;;;;;;;14.63;9.20;;;3.00;99.90;;;;;;5062057;28;20391;-75
2021/01/07 01:09:29;;;;;;;14.20;9.00;;;1.70;99.90;;;;;;5053907;28;20472;-75
2021/01/07 01:11:55;;;;;;;13.38;7.07;;;1.50;99.90;;;;;;5066604;28;20383;-75
2021/01/07 01:14:21;;;;;;;13.35;8.82;;;1.40;99.90;;;;;;5056508;28;20433;-75
2021/01/07 01:16:48;;;;;;;14.13;9.38;;;1.70;99.90;;;;;;5058958;28;20459;-75
2021/01/07 01:19:15;;;;;;;13.48;8.05;;;1.80;99.90;;;;;;5063970;28;20383;-75
2021/01/07 01:21:41;;;;;;;12.60;8.88;;;1.50;99.90;;;;;;5053301;28;20861;-75
2021/01/07 01:24:07;;;;;;;13.32;9.43;;;1.70;99.90;;;;;;5059728;28;20393;-75
2021/01/07 01:26:33;;;;;;;13.00;9.33;;;1.60;99.90;;;;;;5054524;28;20897;-75
2021/01/07 01:28:58;;;;;;;14.38;9.50;;;1.20;99.90;;;;;;5066574;28;20414;-75
2021/01/07 01:31:24;;;;;;;13.45;8.90;;;1.50;99.90;;;;;;5074555;28;20392;-75
2021/01/07 01:33:49;;;;;;;17.03;9.67;;;3.20;99.90;;;;;;5073820;28;20384;-74
2021/01/07 01:36:22;;;;;;;14.00;9.20;;;1.50;99.90;;;;;;5074668;28;20832;-75
2021/01/07 01:38:48;;;;;;;15.77;9.40;;;1.40;99.90;;;;;;5070463;28;20381;-76
2021/01/07 01:41:13;;;;;;;13.75;8.82;;;1.60;99.90;;;;;;5053842;28;20409;-75
2021/01/07 01:43:39;;;;;;;15.50;10.20;;;3.60;99.90;;;;;;5074712;28;20848;-75
2021/01/07 01:46:05;;;;;;;15.98;9.05;;;3.40;99.90;;;;;;5073634;28;20380;-75
2021/01/07 01:48:31;;;;;;;15.95;9.50;;;1.50;99.90;;;;;;5074004;28;20392;-75
2021/01/07 01:50:59;;;;;;;18.25;10.18;;;1.50;99.90;;;;;;5072335;28;20372;-75
2021/01/07 01:53:24;;;;;;;15.65;10.43;;;1.50;99.90;;;;;;5072876;28;20441;-75
2021/01/07 01:55:50;;;;;;;15.03;8.57;;;4.00;99.90;;;;;;5073378;28;20408;-74
2021/01/07 01:58:16;;;;;;;16.27;8.77;;;1.70;99.90;;;;;;5074082;28;20422;-74
2021/01/07 02:00:42;;;;;;;15.68;9.32;;;1.60;99.90;;;;;;5062547;28;20449;-77
2021/01/07 02:03:09;;;;;;;15.20;8.47;;;1.30;99.90;;;;;;5053426;28;20407;-74
2021/01/07 02:05:36;;;;;;;16.15;9.07;;;2.50;99.90;;;;;;5053942;28;20381;-74
2021/01/07 02:08:03;;;;;;;12.55;9.25;;;1.50;99.90;;;;;;5053382;28;20432;-74
2021/01/07 02:10:30;;;;;;;14.10;8.87;;;1.60;99.90;;;;;;5053949;28;20413;-74
2021/01/07 02:12:56;;;;;;;14.32;8.93;;;2.70;99.90;;;;;;5053434;28;20374;-74
2021/01/07 02:15:22;;;;;;;17.23;9.88;;;1.80;99.90;;;;;;5053938;28;20400;-74
2021/01/07 02:17:48;;;;;;;14.18;9.32;;;1.60;99.90;;;;;;5053314;28;20385;-75
2021/01/07 02:20:20;;;;;;;13.07;8.98;;;1.40;99.90;;;;;;5053670;28;20472;-74
2021/01/07 02:22:51;;;;;;;15.48;9.45;;;1.40;99.90;;;;;;5053474;28;20417;-78
2021/01/07 02:25:17;;;;;;;15.00;9.32;;;3.60;99.90;;;;;;5053918;28;20846;-75
2021/01/07 02:27:42;;;;;;;14.63;9.27;;;1.70;99.90;;;;;;5052663;28;20420;-75
2021/01/07 02:30:08;;;;;;;14.00;9.00;;;3.50;99.90;;;;;;5051815;28;20386;-76
2021/01/07 02:32:34;;;;;;;13.85;8.90;;;1.60;99.90;;;;;;5053664;28;20776;-75
2021/01/07 02:34:59;;;;;;;16.33;9.93;;;2.50;99.90;;;;;;5051397;28;20381;-75
2021/01/07 02:37:25;;;;;;;12.73;8.50;;;2.10;99.90;;;;;;5053903;28;20385;-75
2021/01/07 02:39:51;;;;;;;15.10;9.30;;;1.20;99.90;;;;;;5051305;28;20463;-75
2021/01/07 02:42:16;;;;;;;13.43;8.97;;;2.10;99.90;;;;;;5053754;28;20766;-75
2021/01/07 02:44:42;;;;;;;15.40;9.20;;;1.50;99.90;;;;;;5053297;28;20382;-76
2021/01/07 02:47:07;;;;;;;16.13;8.53;;;1.30;99.90;;;;;;5052893;28;20377;-75
2021/01/07 02:49:33;;;;;;;13.77;9.00;;;1.30;99.90;;;;;;5053292;28;20382;-75
2021/01/07 02:51:59;;;;;;;14.27;8.73;;;2.80;99.90;;;;;;5052597;28;20385;-75
2021/01/07 02:54:24;;;;;;;13.43;9.10;;;1.30;99.90;;;;;;5053298;28;20377;-75
2021/01/07 02:56:50;;;;;;;14.93;8.50;;;1.30;99.90;;;;;;5052533;28;20723;-76
2021/01/07 02:59:15;;;;;;;14.57;9.40;;;1.70;99.90;;;;;;5052663;28;20389;-75
2021/01/07 03:01:41;;;;;;;15.90;9.00;;;1.50;99.90;;;;;;5052863;28;20432;-75
2021/01/07 03:04:07;;;;;;;16.98;9.68;;;1.50;99.90;;;;;;5052351;28;20419;-75
2021/01/07 03:06:32;;;;;;;14.73;9.17;;;1.40;99.90;;;;;;5051799;28;20381;-75
2021/01/07 03:08:58;;;;;;;16.43;9.50;;;1.20;99.90;;;;;;5052332;28;20473;-75
2021/01/07 03:11:24;;;;;;;18.25;10.05;;;2.30;99.90;;;;;;5052806;28;20381;-75
2021/01/07 03:13:49;;;;;;;16.17;9.68;;;1.40;99.90;;;;;;5050935;28;20382;-78
2021/01/07 03:16:15;;;;;;;15.90;9.35;;;1.90;99.90;;;;;;5052865;28;20835;-75
2021/01/07 03:18:41;;;;;;;13.57;8.50;;;2.50;99.90;;;;;;5052937;28;20747;-75
2021/01/07 03:21:06;;;;;;;14.33;8.30;;;1.40;99.90;;;;;;5051693;28;20992;-75
2021/01/07 03:23:32;;;;;;;14.00;7.83;;;1.50;99.90;;;;;;5052731;28;20385;-75
2021/01/07 03:25:58;;;;;;;15.10;9.40;;;1.70;99.90;;;;;;5051848;28;20374;-75
2021/01/07 03:28:23;;;;;;;14.43;7.88;;;1.70;99.90;;;;;;5051341;28;20423;-75
2021/01/07 03:30:49;;;;;;;13.18;8.40;;;1.40;99.90;;;;;;5052024;28;20401;-76
2021/01/07 03:33:15;;;;;;;15.57;8.93;;;1.30;99.90;;;;;;5052451;28;20382;-75
2021/01/07 03:35:41;;;;;;;12.97;8.40;;;2.80;99.90;;;;;;5051785;28;20374;-75
2021/01/07 03:38:06;;;;;;;16.40;8.75;;;1.10;99.90;;;;;;5051625;28;20420;-75
2021/01/07 03:40:32;;;;;;;15.75;8.98;;;;;;;;;;5051989;28;20403;-75
2021/01/07 03:42:58;;;;;;;14.15;9.35;;;1.80;99.90;;;;;;5051546;28;20378;-75
2021/01/07 03:45:23;;;;;;;14.20;9.00;;;1.70;99.90;;;;;;5051119;28;20460;-75
2021/01/07 03:47:49;;;;;;;12.48;8.15;;;1.10;99.90;;;;;;5051633;28;20384;-77
2021/01/07 03:50:15;;;;;;;15.90;9.52;;;1.30;99.90;;;;;;5051720;28;20794;-75
2021/01/07 03:52:40;;;;;;;15.32;9.38;;;1.80;99.90;;;;;;5051967;28;20465;-74
2021/01/07 03:55:07;;;;;;;12.75;8.73;;;1.30;99.90;;;;;;5049945;28;20390;-75
2021/01/07 03:57:33;;;;;;;12.80;8.80;;;1.40;99.90;;;;;;5051737;28;20792;-75
2021/01/07 03:59:58;;;;;;;15.33;8.60;;;2.80;99.90;;;;;;5051339;28;20396;-75
2021/01/07 04:02:24;;;;;;;14.77;9.07;;;1.30;99.90;;;;;;5050501;28;20421;-75
2021/01/07 04:04:50;;;;;;;13.40;8.38;;;2.70;99.90;;;;;;5050295;28;20878;-77
2021/01/07 04:07:15;;;;;;;14.35;9.52;;;1.10;99.90;;;;;;5051128;28;20828;-75
2021/01/07 04:09:41;;;;;;;15.00;9.52;;;1.40;99.90;;;;;;5051744;28;20470;-75
2021/01/07 04:12:07;;;;;;;16.00;8.77;;;3.60;99.90;;;;;;5049659;28;20471;-75
2021/01/07 04:14:32;;;;;;;15.70;9.47;;;1.50;99.90;;;;;;5051924;28;20438;-75
2021/01/07 04:16:58;;;;;;;13.50;8.48;;;1.20;99.90;;;;;;5050809;28;20381;-75
2021/01/07 04:19:24;;;;;;;15.50;8.40;;;2.90;99.90;;;;;;5050312;28;20393;-75
2021/01/07 04:21:50;;;;;;;13.83;8.63;;;2.20;99.90;;;;;;5051276;28;20412;-77
2021/01/07 04:24:16;;;;;;;13.10;7.87;;;1.40;99.90;;;;;;5050566;28;20734;-75
2021/01/07 04:26:45;;;;;;;12.70;7.85;;;1.50;99.90;;;;;;5051370;28;20473;-75
2021/01/07 04:29:11;;;;;;;12.25;8.43;;;3.40;99.90;;;;;;5050311;28;20999;-75
2021/01/07 04:31:37;;;;;;;12.47;8.47;;;1.50;99.90;;;;;;5051290;28;20389;-74
2021/01/07 04:34:03;;;;;;;11.85;7.78;;;1.50;99.90;;;;;;5050484;28;20435;-74
2021/01/07 04:36:28;;;;;;;14.00;8.43;;;2.70;99.90;;;;;;5050996;28;20384;-74
2021/01/07 04:38:54;;;;;;;12.60;8.97;;;1.60;99.90;;;;;;5050535;28;20416;-76
2021/01/07 04:41:21;;;;;;;12.40;7.80;;;1.40;99.90;;;;;;5051130;28;20452;-74
2021/01/07 04:43:53;;;;;;;13.38;8.32;;;1.30;99.90;;;;;;5051056;28;20382;-74
2021/01/07 04:46:18;;;;;;;15.48;8.45;;;1.50;99.90;;;;;;5050222;28;20381;-74
2021/01/07 04:48:44;;;;;;;15.23;9.00;;;1.30;99.90;;;;;;5066342;28;20451;-74
2021/01/07 04:51:10;;;;;;;14.30;7.82;;;1.20;99.90;;;;;;5049962;28;20381;-74
2021/01/07 04:53:35;;;;;;;16.83;8.77;;;1.90;99.90;;;;;;5050649;28;20931;-74
2021/01/07 04:56:01;;;;;;;13.90;7.80;;;1.60;99.90;;;;;;5049623;28;20841;-75
2021/01/07 04:58:27;;;;;;;13.83;8.17;;;1.60;99.90;;;;;;5050415;28;20415;-74
2021/01/07 05:00:53;;;;;;;11.10;7.87;;;1.50;99.90;;;;;;5050290;28;20397;-77
2021/01/07 05:03:22;;;;;;;14.90;8.70;;;3.10;99.90;;;;;;5050310;28;20393;-74
2021/01/07 05:05:50;;;;;;;12.65;7.95;;;3.50;99.90;;;;;;5050608;28;20389;-75
2021/01/07 05:08:19;;;;;;;14.68;8.65;;;1.60;99.90;;;;;;5050155;28;21213;-74
2021/01/07 05:10:50;;;;;;;14.80;8.43;;;1.60;99.90;;;;;;5050684;28;20389;-74
2021/01/07 05:13:17;;;;;;;13.80;7.97;;;3.00;99.90;;;;;;5048946;28;20386;-75
2021/01/07 05:15:43;;;;;;;12.25;7.78;;;1.40;99.90;;;;;;5050883;28;20427;-74
2021/01/07 05:18:10;;;;;;;14.60;8.80;;;1.40;99.90;;;;;;5049921;28;20381;-74
2021/01/07 05:20:35;;;;;;;11.30;7.88;;;1.20;99.90;;;;;;5050774;28;20438;-74
2021/01/07 05:23:02;;;;;;;12.52;7.57;;;1.30;99.90;;;;;;5048664;28;20386;-74
2021/01/07 05:25:29;;;;;;;10.97;8.23;;;1.30;99.90;;;;;;5050812;28;20468;-74
2021/01/07 05:28:02;;;;;;;13.35;8.43;;;1.50;99.90;;;;;;5049111;28;20396;-77
2021/01/07 05:30:29;;;;;;;14.05;8.43;;;1.30;99.90;;;;;;5050788;28;20417;-75
2021/01/07 05:33:06;;;;;;;12.85;8.52;;;1.70;99.90;;;;;;5050486;28;20392;-78
2021/01/07 05:35:33;;;;;;;13.95;8.48;;;1.40;99.90;;;;;;5050431;28;20719;-75
2021/01/07 05:38:00;;;;;;;11.05;8.10;;;3.30;99.90;;;;;;5050119;28;20382;-77
2021/01/07 05:40:27;;;;;;;15.32;8.88;;;2.50;99.90;;;;;;5050582;28;20500;-75
2021/01/07 05:42:58;;;;;;;15.03;8.50;;;3.60;99.90;;;;;;5050337;28;20386;-75
2021/01/07 05:45:34;;;;;;;12.82;8.20;;;1.90;99.90;;;;;;5050582;28;20476;-74
2021/01/07 05:48:01;;;;;;;12.10;8.20;;;1.70;99.90;;;;;;5049820;28;20435;-74
2021/01/07 05:50:29;;;;;;;12.18;7.90;;;1.30;99.90;;;;;;5050609;28;20392;-74
2021/01/07 05:52:55;;;;;;;13.68;8.35;;;3.90;99.90;;;;;;5050576;28;20393;-74
2021/01/07 05:55:20;;;;;;;12.88;8.30;;;2.30;99.90;;;;;;5049991;28;20476;-74
2021/01/07 05:57:47;;;;;;;12.77;8.10;;;3.30;99.90;;;;;;5050537;28;20917;-74
2021/01/07 06:00:17;;;;;;;11.50;8.02;;;3.60;99.90;;;;;;5049521;28;20742;-75
2021/01/07 06:02:44;;;;;;;14.53;9.87;;;1.40;99.90;;;;;;5049910;28;20516;-74
2021/01/07 06:05:15;;;;;;;13.02;8.80;;;3.60;99.90;;;;;;5049617;28;20429;-74
2021/01/07 06:07:42;;;;;;;14.15;8.98;;;1.50;99.90;;;;;;5050425;28;20416;-74
2021/01/07 06:10:12;;;;;;;15.05;8.88;;;1.50;99.90;;;;;;5053641;28;20385;-74
2021/01/07 06:12:38;;;;;;;14.20;8.57;;;1.20;99.90;;;;;;5036222;28;20421;-74
2021/01/07 06:15:08;;;;;;;14.82;9.13;;;1.20;99.90;;;;;;5053091;28;20464;-75
2021/01/07 06:17:34;;;;;;;12.48;9.02;;;1.30;99.90;;;;;;5053903;28;20416;-74
2021/01/07 06:20:00;;;;;;;15.40;9.55;;;1.20;99.90;;;;;;5053452;28;20874;-77
2021/01/07 06:22:26;;;;;;;13.40;8.03;;;0.10;99.90;;;;;;5052279;28;20423;-74
2021/01/07 06:24:54;;;;;;;12.18;8.90;;;1.20;99.90;;;;;;5052578;28;20396;-74
2021/01/07 06:27:31;;;;;;;17.08;9.13;;;1.90;99.90;;;;;;5052985;28;21006;-73
2021/01/07 06:30:21;;;;;;;11.65;7.55;;;1.30;99.90;;;;;;5052672;28;20443;-74
2021/01/07 06:33:04;;;;;;;12.38;8.70;;;1.90;99.90;;;;;;5053276;28;20437;-74
2021/01/07 06:35:36;;;;;;;13.40;8.00;;;1.20;99.90;;;;;;5053608;28;20418;-74
2021/01/07 06:38:02;;;;;;;15.85;8.30;;;3.50;99.90;;;;;;5052936;28;20378;-77
2021/01/07 06:40:27;;;;;;;14.85;8.98;;;2.00;99.90;;;;;;5053163;28;20450;-74
2021/01/07 06:42:54;;;;;;;14.53;8.90;;;3.50;99.90;;;;;;5053613;28;20858;-74
2021/01/07 06:45:25;;;;;;;14.13;8.73;;;1.50;99.90;;;;;;5051144;28;20389;-74
2021/01/07 06:47:53;;;;;;;13.77;9.02;;;3.20;99.90;;;;;;5053384;28;20389;-74
2021/01/07 06:50:19;;;;;;;12.57;8.15;;;1.30;99.90;;;;;;5052583;28;20524;-74
2021/01/07 06:52:46;;;;;;;12.27;7.95;;;1.30;99.90;;;;;;5053306;28;20783;-74
2021/01/07 06:55:17;;;;;;;12.60;7.50;;;3.80;99.90;;;;;;5051221;28;20870;-74
2021/01/07 06:57:54;;;;;;;14.38;8.75;;;1.60;99.90;;;;;;5053212;28;20385;-75
2021/01/07 07:00:22;;;;;;;14.52;8.85;;;1.70;99.90;;;;;;5051187;28;20400;-75
2021/01/07 07:03:03;;;;;;;13.50;8.70;;;1.70;99.90;;;;;;5052725;28;20821;-75
2021/01/07 07:05:34;;;;;;;12.05;8.43;;;3.30;99.90;;;;;;5053104;28;20381;-74
2021/01/07 07:08:08;;;;;;;15.50;8.47;;;2.60;99.90;;;;;;5052838;28;20540;-77
2021/01/07 07:10:33;;;;;;;13.77;9.02;;;1.50;99.90;;;;;;5053172;28;20472;-75
2021/01/07 07:13:19;;;;;;;14.40;8.33;;;1.40;99.90;;;;;;5052671;28;20989;-75
2021/01/07 07:15:49;;;;;;;13.93;9.57;;;1.50;99.90;;;;;;5052720;28;20402;-75
2021/01/07 07:18:26;;;;;;;12.13;8.20;;;1.70;99.90;;;;;;5051828;28;20468;-75
2021/01/07 07:20:52;;;;;;;14.13;8.98;;;3.90;99.90;;;;;;5051563;28;20455;-74
2021/01/07 07:23:24;;;;;;;15.57;8.48;;;1.80;99.90;;;;;;5051868;28;20374;-75
2021/01/07 07:25:54;;;;;;;12.73;8.02;;;1.60;99.90;;;;;;5052812;28;20392;-75
2021/01/07 07:28:22;;;;;;;15.10;9.20;;;1.80;99.90;;;;;;5051861;28;20733;-75
2021/01/07 07:30:48;;;;;;;11.80;8.43;;;2.00;99.90;;;;;;5052501;28;20378;-75
2021/01/07 07:33:33;;;;;;;14.45;9.27;;;2.90;99.90;;;;;;5051506;28;20388;-75
2021/01/07 07:35:59;;;;;;;14.77;9.25;;;1.80;99.90;;;;;;5051403;28;20406;-74
2021/01/07 07:38:34;;;;;;;14.10;8.40;;;1.90;99.90;;;;;;5051374;28;21143;-73
2021/01/07 07:41:07;;;;;;;13.60;9.25;;;1.70;99.90;;;;;;5052400;28;20416;-74
2021/01/07 07:43:36;;;;;;;14.00;8.77;;;2.60;99.90;;;;;;5051585;28;20464;-74
2021/01/07 07:46:04;;;;;;;14.33;9.00;;;3.40;99.90;;;;;;5051849;28;20498;-74
2021/01/07 07:48:31;;;;;;;16.48;9.20;;;2.70;99.90;;;;;;5051237;28;20378;-74
2021/01/07 07:51:11;;;;;;;15.30;8.93;;;1.30;99.90;;;;;;5052058;28;20443;-75
2021/01/07 07:53:38;;;;;;;16.27;9.60;;;1.70;99.90;;;;;;5050666;28;20397;-75
2021/01/07 07:56:24;;;;;;;15.52;9.75;;;1.50;99.90;;;;;;5051868;28;20388;-77
2021/01/07 07:59:05;;;;;;;13.07;8.52;;;1.80;99.90;;;;;;5050131;28;20750;-75
2021/01/07 08:01:49;;;;;;;12.57;8.60;;;1.60;99.90;;;;;;5051153;28;20485;-75
2021/01/07 08:04:17;;;;;;;16.50;10.00;;;1.60;99.90;;;;;;5050949;28;20390;-75
2021/01/07 08:06:47;;;;;;;16.35;9.15;;;1.60;99.90;;;;;;5050480;28;20385;-75
2021/01/07 08:09:15;;;;;;;14.15;9.57;;;1.20;99.90;;;;;;5051048;28;20385;-75
2021/01/07 08:11:48;;;;;;;14.23;9.70;;;2.60;99.90;;;;;;5050806;28;20385;-75
2021/01/07 08:14:24;;;;;;;16.55;9.88;;;1.30;99.90;;;;;;5050999;28;20393;-75
2021/01/07 08:16:57;;;;;;;14.50;9.10;;;1.40;99.90;;;;;;5051848;28;20384;-75
2021/01/07 08:19:33;;;;;;;18.50;11.30;;;1.60;99.90;;;;;;5050567;28;20874;-75
2021/01/07 08:22:00;;;;;;;15.57;9.65;;;2.70;99.90;;;;;;5051664;28;20789;-74
2021/01/07 08:24:26;;;;;;;13.73;8.90;;;1.70;99.90;;;;;;5050354;28;20443;-75
2021/01/07 08:27:08;;;;;;;17.35;9.00;;;1.50;99.90;;;;;;5050361;28;20421;-74
2021/01/07 08:29:36;;;;;;;17.60;9.77;;;1.60;99.90;;;;;;5051400;28;20390;-74
2021/01/07 08:32:04;;;;;;;13.77;9.13;;;2.00;99.90;;;;;;5051280;28;20468;-74
2021/01/07 08:34:31;;;;;;;15.68;9.52;;;1.70;99.90;;;;;;5050932;28;20382;-75
2021/01/07 08:37:19;;;;;;;15.05;10.60;;;1.80;99.90;;;;;;5051195;28;20388;-74
2021/01/07 08:39:45;;;;;;;13.38;9.00;;;2.40;99.90;;;;;;5050937;28;20405;-75
2021/01/07 08:42:14;;;;;;;16.93;9.80;;;4.10;99.90;;;;;;5045447;28;20466;-75
2021/01/07 08:44:39;;;;;;;15.85;9.60;;;2.00;99.90;;;;;;5050981;28;20393;-75
2021/01/07 08:47:20;;;;;;;13.57;9.48;;;5.50;99.90;;;;;;5047861;28;20495;-76
2021/01/07 08:49:46;;;;;;;15.55;10.38;;;2.20;99.90;;;;;;5048278;28;20378;-75
2021/01/07 08:52:11;;;;;;;14.73;9.40;;;3.30;99.90;;;;;;5047556;28;20476;-75
2021/01/07 08:54:37;;;;;;;16.97;10.60;;;2.00;99.90;;;;;;5048189;28;20381;-74
2021/01/07 08:57:11;;;;;;;14.43;9.23;;;1.70;99.90;;;;;;5051334;28;20384;-74
2021/01/07 08:59:38;;;;;;;14.45;8.23;;;1.90;99.90;;;;;;5048687;28;20442;-74
2021/01/07 09:02:06;;;;;;;16.75;9.38;;;3.60;99.90;;;;;;5050443;28;20508;-73
2021/01/07 09:04:38;;;;;;;15.70;10.05;;;2.90;99.90;;;;;;5048176;28;20402;-74
2021/01/07 09:07:19;;;;;;;13.18;8.43;;;2.00;99.90;;;;;;5049163;28;20397;-75
2021/01/07 09:09:57;;;;;;;12.43;8.60;;;2.30;99.90;;;;;;5050151;28;20403;-75
2021/01/07 09:12:24;;;;;;;16.02;9.52;;;2.90;99.90;;;;;;5047852;28;20468;-75
2021/01/07 09:15:09;;;;;;;11.50;8.52;;;2.40;99.90;;;;;;5050211;28;20439;-75
2021/01/07 09:17:43;;;;;;;12.30;8.43;;;2.30;99.90;;;;;;5049738;28;20427;-75
2021/01/07 09:20:21;;;;;;;11.93;8.35;;;2.00;99.90;;;;;;5049782;28;20398;-77
2021/01/07 09:22:48;;;;;;;11.70;7.20;;;2.30;99.90;;;;;;5049015;28;20458;-75
2021/01/07 09:25:19;;;;;;;14.25;7.93;;;1.90;99.90;;;;;;5049146;28;20408;-75
2021/01/07 09:27:51;;;;;;;13.27;7.40;;;4.70;99.90;;;;;;5050410;28;20378;-74
2021/01/07 09:30:17;;;;;;;9.00;7.20;;;2.50;99.90;;;;;;5047727;28;20396;-74
2021/01/07 09:32:44;;;;;;;9.35;6.93;;;2.40;99.90;;;;;;5050744;28;20443;-73
2021/01/07 09:35:11;;;;;;;8.27;6.20;;;2.30;99.90;;;;;;5049769;28;20785;-78
2021/01/07 09:37:37;;;;;;;10.20;6.97;;;2.20;99.90;;;;;;5050668;28;20452;-76
2021/01/07 09:40:05;;;;;;;12.63;7.30;;;2.10;99.90;;;;;;5049044;28;20491;-75
2021/01/07 09:42:32;;;;;;;9.30;6.30;;;2.30;99.90;;;;;;5049555;28;20431;-75
2021/01/07 09:45:02;;;;;;;9.85;6.55;;;2.80;99.90;;;;;;5050689;28;20809;-75
2021/01/07 09:47:28;;;;;;;11.05;7.72;;;2.30;99.90;;;;;;5051533;28;20408;-74
2021/01/07 09:49:56;;;;;;;12.07;8.57;;;3.40;99.90;;;;;;5043656;28;20427;-74
2021/01/07 09:52:22;;;;;;;12.10;8.10;;;2.20;99.90;;;;;;5034534;28;20441;-75
2021/01/07 09:54:48;;;;;;;10.77;7.75;;;3.50;99.90;;;;;;5034294;28;20375;-75
2021/01/07 09:57:14;;;;;;;12.18;8.43;;;4.10;99.90;;;;;;5033697;28;20402;-77
2021/01/07 09:59:40;;;;;;;11.77;7.85;;;2.70;99.90;;;;;;5034243;28;20429;-75
2021/01/07 10:02:10;;;;;;;11.57;7.30;;;3.90;99.90;;;;;;5034096;28;20918;-75
2021/01/07 10:04:37;;;;;;;10.48;7.97;;;3.00;99.90;;;;;;5033898;28;20387;-75
2021/01/07 10:07:04;;;;;;;11.00;7.90;;;4.70;99.90;;;;;;5034198;28;20464;-75
2021/01/07 10:09:30;;;;;;;11.65;7.90;;;3.20;99.90;;;;;;5031961;28;20390;-75
2021/01/07 10:11:57;;;;;;;10.32;7.28;;;4.80;99.90;;;;;;5032861;28;20396;-75
2021/01/07 10:14:24;;;;;;;9.20;7.40;;;3.40;99.90;;;;;;5033335;28;20394;-75
2021/01/07 10:16:52;;;;;;;12.27;7.78;;;3.90;99.90;;;;;;5034399;28;20469;-75
2021/01/07 10:19:20;;;;;;;11.15;8.07;;;2.70;99.90;;;;;;5039822;28;20397;-75
2021/01/07 10:21:58;;;;;;;13.70;8.25;;;2.60;99.90;;;;;;5040682;28;20502;-75
2021/01/07 10:24:24;;;;;;;12.00;7.68;;;4.30;99.90;;;;;;5033933;28;20402;-74
2021/01/07 10:27:00;;;;;;;8.60;5.47;;;3.00;99.90;;;;;;5043879;28;20796;-74
2021/01/07 10:29:30;;;;;;;9.50;6.60;;;2.80;99.90;;;;;;5050982;28;20421;-75
2021/01/07 10:32:07;;;;;;;9.93;6.28;;;3.00;99.90;;;;;;5053150;28;20412;-75
2021/01/07 10:34:39;;;;;;;9.63;6.80;;;2.80;99.90;;;;;;5049771;28;20388;-75
2021/01/07 10:37:07;;;;;;;10.98;7.07;;;3.20;99.90;;;;;;5049490;28;20946;-75
2021/01/07 10:39:34;;;;;;;9.82;6.07;;;3.10;99.90;;;;;;5048510;28;20462;-75
2021/01/07 10:42:01;;;;;;;9.40;6.43;;;4.70;99.90;;;;;;5050492;28;20802;-75
2021/01/07 10:44:35;;;;;;;7.57;5.70;;;3.00;99.90;;;;;;5050193;28;20381;-76
2021/01/07 10:47:02;;;;;;;9.45;7.25;;;2.90;99.90;;;;;;5053361;28;20397;-74
2021/01/07 10:49:30;;;;;;;12.35;7.93;;;3.10;99.90;;;;;;5052587;28;20424;-75
2021/01/07 10:52:07;;;;;;;10.00;6.45;;;4.80;99.90;;;;;;5053327;28;20389;-74
2021/01/07 10:55:07;;;;;;;8.07;5.95;;;3.30;99.90;;;;;;5052408;28;20849;-75
2021/01/07 10:57:54;;;;;;;10.05;6.18;;;3.20;99.90;;;;;;5051464;28;20533;-74
2021/01/07 11:00:44;;;;;;;10.82;6.97;;;3.10;99.90;;;;;;5049349;28;20405;-74
2021/01/07 11:03:45;;;;;;;10.18;6.47;;;3.10;99.90;;;;;;5047217;28;20444;-74
2021/01/07 11:06:12;;;;;;;9.52;6.63;;;3.40;99.90;;;;;;5048509;28;20406;-75
2021/01/07 11:08:49;;;;;;;10.63;7.80;;;5.30;99.90;;;;;;5052089;28;20382;-75
2021/01/07 11:11:26;;;;;;;10.15;7.63;;;5.10;99.90;;;;;;5051272;28;20436;-77
2021/01/07 11:13:57;;;;;;;12.10;7.75;;;3.20;99.90;;;;;;5052342;28;20448;-74
2021/01/07 11:16:30;;;;;;;12.02;8.02;;;3.30;99.90;;;;;;5051544;28;20384;-74
2021/01/07 11:18:58;;;;;;;9.37;6.77;;;3.00;99.90;;;;;;5052668;28;20862;-75
2021/01/07 11:21:26;;;;;;;11.75;7.20;;;4.40;99.90;;;;;;5051863;28;20449;-74
2021/01/07 11:23:52;;;;;;;12.70;7.78;;;3.40;99.90;;;;;;5048937;28;20401;-74
2021/01/07 11:26:20;;;;;;;9.57;6.83;;;4.60;99.90;;;;;;5051057;28;20384;-75
2021/01/07 11:28:46;;;;;;;10.70;7.40;;;4.20;99.90;;;;;;5052114;28;20381;-74
2021/01/07 11:31:12;;;;;;;9.27;5.95;;;4.40;99.90;;;;;;5051077;28;20432;-74
2021/01/07 11:33:39;;;;;;;7.75;5.90;;;4.40;99.90;;;;;;5051913;28;20421;-74
2021/01/07 11:36:11;;;;;;;12.70;6.85;;;3.70;99.90;;;;;;5052432;28;20391;-75
2021/01/07 11:38:48;;;;;;;10.57;6.93;;;3.70;99.90;;;;;;5051737;28;20381;-74
2021/01/07 11:41:38;;;;;;;8.85;6.00;;;3.80;99.90;;;;;;5051786;28;20445;-77
2021/01/07 11:44:07;;;;;;;9.55;6.32;;;3.90;99.90;;;;;;5053010;28;20389;-74
2021/01/07 11:46:34;;;;;;;8.93;6.05;;;4.20;99.90;;;;;;5051098;28;20753;-75
2021/01/07 11:49:03;;;;;;;8.73;5.88;;;4.20;99.90;;;;;;5052211;28;20373;-75
2021/01/07 11:51:29;;;;;;;7.82;5.78;;;4.30;99.90;;;;;;5051383;28;20395;-75
2021/01/07 11:53:59;;;;;;;7.85;5.45;;;4.70;99.90;;;;;;5051868;28;20381;-74
2021/01/07 11:56:26;;;;;;;9.43;6.55;;;3.50;99.90;;;;;;5051312;28;20385;-75
2021/01/07 11:58:52;;;;;;;9.60;5.90;;;3.30;99.90;;;;;;5052072;28;20386;-73
2021/01/07 12:01:18;;;;;;;9.52;5.63;;;4.30;99.90;;;;;;5051286;28;20456;-78
2021/01/07 12:03:44;;;;;;;8.80;5.28;;;3.90;99.90;;;;;;5052300;28;20393;-75
2021/01/07 12:06:16;;;;;;;7.50;5.15;;;4.40;99.90;;;;;;5051420;28;20388;-75
2021/01/07 12:09:12;;;;;;;6.32;4.50;;;3.50;99.90;;;;;;5051565;28;20472;-75
2021/01/07 12:11:59;;;;;;;6.87;5.30;;;3.80;99.90;;;;;;5049898;28;20407;-75
2021/01/07 12:14:27;;;;;;;6.90;5.38;;;3.80;99.90;;;;;;5051111;28;20381;-75
2021/01/07 12:16:58;;;;;;;5.97;4.65;;;4.70;99.90;;;;;;5051417;28;20392;-75
2021/01/07 12:19:27;;;;;;;7.00;5.20;;;4.20;99.90;;;;;;5051089;28;20377;-74
2021/01/07 12:21:54;;;;;;;6.80;5.03;;;5.50;99.90;;;;;;5050544;28;20874;-75
2021/01/07 12:24:22;;;;;;;7.93;4.75;;;4.30;99.90;;;;;;5050450;28;20862;-75
2021/01/07 12:26:48;;;;;;;8.43;5.63;;;3.70;99.90;;;;;;5051482;28;20416;-74
2021/01/07 12:29:21;;;;;;;8.05;5.40;;;4.70;99.90;;;;;;5051532;28;20390;-75
2021/01/07 12:31:55;;;;;;;7.03;4.90;;;4.60;99.90;;;;;;5051401;28;20428;-75
2021/01/07 12:34:38;;;;;;;9.32;5.43;;;3.60;99.90;;;;;;5050876;28;20444;-75
2021/01/07 12:37:06;;;;;;;7.53;5.70;;;4.00;99.90;;;;;;5051267;28;20385;-75
2021/01/07 12:39:38;;;;;;;7.68;5.60;;;4.40;99.90;;;;;;5050131;28;20402;-75
2021/01/07 12:42:12;;;;;;;7.82;5.35;;;4.00;99.90;;;;;;5050847;28;20770;-74
2021/01/07 12:44:41;;;;;;;8.15;6.28;;;4.30;99.90;;;;;;5050404;28;20536;-74
2021/01/07 12:47:07;;;;;;;8.10;5.50;;;4.20;99.90;;;;;;5031241;28;20441;-74
2021/01/07 12:49:34;;;;;;;8.90;6.28;;;5.50;99.90;;;;;;5030431;28;20933;-74
2021/01/07 12:52:02;;;;;;;7.50;5.50;;;5.40;99.90;;;;;;5031036;28;20383;-74
2021/01/07 12:54:28;;;;;;;7.63;6.13;;;4.90;99.90;;;;;;5030448;28;20395;-75
2021/01/07 12:57:18;;;;;;;8.93;6.63;;;5.30;99.90;;;;;;5031040;28;20390;-74